Time;durP1;ratioP1;P1;durP2;ratioP2;P2;SDS_P1;SDS_P2;PMS_P1;PMS_P2;Temp;Humidity;BMP_temperature;BMP_pressure;BME280_temperature;BME280_humidity;BME280_pressure;Samples;Min_cycle;Max_cycle;Signal;HPM_P1;HPM_P2
2022/09/04 00:02:17;;;;;;;0.80;0.52;;;;;;;18.66;100.00;99276.44;7384757;19;20018;-80
2022/09/04 00:04:57;;;;;;;2.30;0.40;;;;;;;19.32;100.00;99274.16;7384527;19;20476;-80
2022/09/04 00:07:33;;;;;;;0.10;0.10;;;;;;;19.23;100.00;99266.94;7388403;19;20381;-80
2022/09/04 00:10:16;;;;;;;0.20;0.20;;;;;;;19.37;100.00;99271.25;7388762;19;20033;-80
2022/09/04 00:12:53;;;;;;;6.03;0.38;;;;;;;19.25;100.00;99267.13;7384472;19;20473;-81
2022/09/04 00:15:24;;;;;;;0.22;0.20;;;;;;;19.37;100.00;99271.25;7384885;19;20035;-80
2022/09/04 00:18:01;;;;;;;1.20;0.40;;;;;;;19.42;100.00;99270.38;7384568;19;20023;-81
2022/09/04 00:20:36;;;;;;;2.92;0.40;;;;;;;19.33;100.00;99270.03;7385927;19;20509;-80
2022/09/04 00:23:35;;;;;;;0.82;0.20;;;;;;;19.53;100.00;99272.88;7385729;19;20496;-81
2022/09/04 00:26:51;;;;;;;0.75;0.28;;;;;;;19.60;100.00;99277.84;7385348;19;20367;-80
2022/09/04 00:29:28;;;;;;;0.30;0.20;;;;;;;19.74;100.00;99281.38;7385468;19;20017;-81
2022/09/04 00:32:08;;;;;;;2.00;0.50;;;;;;;19.79;100.00;99276.88;7381903;19;20736;-79
2022/09/04 00:34:58;;;;;;;1.85;0.50;;;;;;;19.82;100.00;99281.41;7387498;19;20029;-80
2022/09/04 00:37:36;;;;;;;0.10;0.10;;;;;;;19.83;100.00;99282.94;7393635;19;20019;-80
2022/09/04 00:40:08;;;;;;;0.30;0.30;;;;;;;19.96;100.00;99285.69;7390417;19;20358;-80
2022/09/04 00:42:46;;;;;;;5.50;0.82;;;;;;;20.09;100.00;99279.94;7394553;19;20468;-81
2022/09/04 00:45:31;;;;;;;0.85;0.30;;;;;;;19.83;100.00;99294.25;7391999;19;20038;-80
2022/09/04 00:47:57;;;;;;;0.45;0.17;;;;;;;19.93;100.00;99287.53;7390619;19;20025;-80
2022/09/04 00:50:32;;;;;;;0.85;0.10;;;;;;;19.97;100.00;99293.59;7391162;19;20029;-79
2022/09/04 00:53:15;;;;;;;0.20;0.20;;;;;;;20.11;100.00;99291.44;7390325;19;20026;-81
2022/09/04 00:55:54;;;;;;;0.47;0.20;;;;;;;20.15;100.00;99292.59;7391479;19;20013;-80
2022/09/04 00:58:46;;;;;;;0.20;0.20;;;;;;;20.26;100.00;99297.22;7387411;19;20083;-80
2022/09/04 01:01:20;;;;;;;1.20;0.50;;;;;;;20.21;100.00;99292.47;7392393;19;20034;-80
2022/09/04 01:04:42;;;;;;;0.38;0.35;;;;;;;20.10;100.00;99287.09;7395808;19;20014;-80
2022/09/04 01:07:27;;;;;;;0.75;0.20;;;;;;;20.16;100.00;99302.59;7387193;19;20031;-80
2022/09/04 01:10:22;;;;;;;0.30;0.28;;;;;;;20.17;100.00;99297.69;7394890;19;20026;-80
2022/09/04 01:12:52;;;;;;;0.57;0.57;;;;;;;20.31;100.00;99299.16;7391019;19;20015;-80
2022/09/04 01:15:48;;;;;;;0.40;0.35;;;;;;;20.44;100.00;99295.44;7392500;19;20097;-80
2022/09/04 01:18:29;;;;;;;0.10;0.10;;;;;;;20.42;100.00;99298.06;7390503;19;20109;-80
2022/09/04 01:21:33;;;;;;;0.60;0.40;;;;;;;20.33;100.00;99290.88;7391972;19;20053;-80
2022/09/04 01:23:59;;;;;;;0.38;0.38;;;;;;;20.30;100.00;99297.63;7390544;19;20023;-80
2022/09/04 01:26:31;;;;;;;1.17;0.30;;;;;;;20.26;100.00;99289.50;7390519;19;20014;-80
2022/09/04 01:29:29;;;;;;;1.05;0.55;;;;;;;20.23;100.00;99292.66;7391089;19;20029;-80
2022/09/04 01:32:01;;;;;;;0.75;0.38;;;;;;;20.10;100.00;99299.16;7389932;19;20353;-81
2022/09/04 01:34:46;;;;;;;0.93;0.28;;;;;;;20.05;100.00;99293.66;7391074;19;20026;-80
2022/09/04 01:37:28;;;;;;;7.97;0.47;;;;;;;20.10;100.00;99295.56;7392260;19;20018;-81
2022/09/04 01:40:29;;;;;;;0.88;0.22;;;;;;;20.11;100.00;99291.44;7389937;19;20074;-81
2022/09/04 01:43:02;;;;;;;0.20;0.10;;;;;;;20.15;100.00;99294.66;7389042;19;20038;-80
2022/09/04 01:45:54;;;;;;;0.60;0.30;;;;;;;19.91;100.00;99300.72;7387321;19;20026;-81
2022/09/04 01:48:46;;;;;;;0.63;0.20;;;;;;;19.83;100.00;99294.25;7391109;19;20018;-81
2022/09/04 01:51:36;;;;;;;0.30;0.20;;;;;;;19.86;100.00;99293.16;7389734;19;20019;-80
2022/09/04 01:54:10;;;;;;;0.30;0.10;;;;;;;19.93;100.00;99303.72;7387562;19;20048;-80
2022/09/04 01:56:47;;;;;;;0.43;0.30;;;;;;;19.92;100.00;99296.59;7391365;19;20034;-80
2022/09/04 01:59:36;;;;;;;0.75;0.47;;;;;;;19.98;100.00;99300.00;7389972;19;20026;-81
2022/09/04 02:02:47;;;;;;;0.55;0.30;;;;;;;19.92;100.00;99302.25;7388036;19;20025;-80
2022/09/04 02:05:19;;;;;;;;;;;;;;;20.05;100.00;99299.31;7389275;19;20021;-81
2022/09/04 02:08:24;;;;;;;3.20;0.57;;;;;;;20.12;100.00;99295.78;7388346;19;19922;-80
2022/09/04 02:11:07;;;;;;;1.20;0.20;;;;;;;20.07;100.00;99303.13;7389433;19;20505;-80
2022/09/04 02:13:55;;;;;;;0.65;0.20;;;;;;;20.06;100.00;99300.81;7387660;19;20037;-80
2022/09/04 02:16:44;;;;;;;4.82;0.40;;;;;;;20.02;100.00;99300.41;7392300;19;20402;-81
2022/09/04 02:19:25;;;;;;;0.55;0.32;;;;;;;19.89;100.00;99300.50;7391037;19;20018;-80
2022/09/04 02:22:00;;;;;;;1.48;0.50;;;;;;;19.90;100.00;99304.84;7388593;19;20046;-81
2022/09/04 02:24:41;;;;;;;0.47;0.28;;;;;;;19.90;100.00;99299.97;7389601;19;20374;-81
2022/09/04 02:27:15;;;;;;;1.35;0.75;;;;;;;20.03;100.00;99291.38;7392776;19;20022;-80
2022/09/04 02:30:03;;;;;;;1.88;0.95;;;;;;;20.06;100.00;99286.69;7387576;19;20037;-81
2022/09/04 02:33:02;;;;;;;0.70;0.68;;;;;;;20.15;100.00;99297.50;7387607;19;20402;-80
2022/09/04 02:36:14;;;;;;;3.90;0.70;;;;;;;20.23;100.00;99298.31;7386953;19;20010;-81
2022/09/04 02:39:08;;;;;;;0.82;0.38;;;;;;;20.33;100.00;99296.53;7392739;19;20082;-81
2022/09/04 02:41:49;;;;;;;2.05;0.68;;;;;;;20.31;100.00;99294.22;7392307;19;20010;-80
2022/09/04 02:44:30;;;;;;;3.58;0.80;;;;;;;20.11;100.00;99291.44;7389130;19;20018;-78
2022/09/04 02:47:15;;;;;;;0.40;0.40;;;;;;;20.27;100.00;99304.41;7389099;19;20018;-79
2022/09/04 02:49:58;;;;;;;1.15;0.45;;;;;;;20.31;100.00;99293.50;7392815;19;20015;-79
2022/09/04 02:52:44;;;;;;;1.55;0.40;;;;;;;20.37;100.00;99291.25;7388469;19;20361;-79
2022/09/04 02:55:47;;;;;;;0.15;0.10;;;;;;;20.38;100.00;99298.41;7387376;19;20023;-78
2022/09/04 02:58:30;;;;;;;3.38;0.65;;;;;;;20.47;100.00;99283.75;7384168;19;20352;-79
2022/09/04 03:01:03;;;;;;;0.32;0.32;;;;;;;20.53;100.00;99281.53;7386728;19;20039;-79
2022/09/04 03:04:08;;;;;;;0.47;0.40;;;;;;;20.32;100.00;99280.84;7386019;19;20014;-79
2022/09/04 03:06:58;;;;;;;3.63;0.38;;;;;;;20.47;100.00;99283.00;7387486;19;20042;-78
2022/09/04 03:09:46;;;;;;;2.35;0.20;;;;;;;20.62;100.00;99283.84;7388646;19;20018;-79
2022/09/04 03:12:27;;;;;;;0.82;0.25;;;;;;;20.63;100.00;99282.53;7387729;19;20030;-79
2022/09/04 03:14:59;;;;;;;;;;;;;;;20.53;100.00;99270.22;7393175;19;20014;-79
2022/09/04 03:17:40;;;;;;;0.45;0.30;;;;;;;20.49;100.00;99280.41;7389902;19;19921;-79
2022/09/04 03:20:16;;;;;;;0.90;0.20;;;;;;;20.56;100.00;99271.94;7393097;19;20011;-79
2022/09/04 03:22:59;;;;;;;2.78;0.55;;;;;;;20.53;100.00;99275.88;7389608;19;20022;-79
2022/09/04 03:25:34;;;;;;;0.28;0.28;;;;;;;20.53;100.00;99278.69;7385943;19;20137;-79
2022/09/04 03:28:00;;;;;;;0.10;0.10;;;;;;;20.28;100.00;99275.56;7384166;19;20354;-78
2022/09/04 03:30:30;;;;;;;5.18;0.55;;;;;;;20.18;100.00;99273.78;7387066;19;20022;-80
2022/09/04 03:33:02;;;;;;;4.13;0.70;;;;;;;20.13;100.00;99271.84;7384845;19;20484;-79
2022/09/04 03:35:58;;;;;;;2.25;0.75;;;;;;;20.21;100.00;99279.09;7386366;19;20023;-79
2022/09/04 03:38:41;;;;;;;1.42;0.88;;;;;;;20.19;100.00;99278.09;7388875;19;20027;-79
2022/09/04 03:41:25;;;;;;;2.53;0.60;;;;;;;20.23;100.00;99281.34;7387401;19;20674;-79
2022/09/04 03:43:56;;;;;;;1.52;0.45;;;;;;;20.16;100.00;99279.22;7386215;19;20014;-79
2022/09/04 03:46:26;;;;;;;0.25;0.25;;;;;;;20.13;100.00;99278.28;7388125;19;20018;-79
2022/09/04 03:48:54;;;;;;;2.13;1.02;;;;;;;20.02;100.00;99283.47;7389061;19;20414;-79
2022/09/04 03:51:49;;;;;;;1.88;0.28;;;;;;;19.93;100.00;99276.25;7385439;19;20119;-79
2022/09/04 03:54:53;;;;;;;0.17;0.10;;;;;;;19.86;100.00;99281.84;7385639;19;20046;-79
2022/09/04 03:57:49;;;;;;;1.50;0.52;;;;;;;20.05;100.00;99283.13;7390133;19;20367;-80
2022/09/04 04:00:21;;;;;;;1.98;0.30;;;;;;;20.07;100.00;99285.38;7386644;19;20019;-79
2022/09/04 04:03:08;;;;;;;0.88;0.50;;;;;;;20.08;100.00;99284.06;7390451;19;20030;-78
2022/09/04 04:05:46;;;;;;;1.90;0.68;;;;;;;20.08;100.00;99286.88;7387985;19;20081;-79
2022/09/04 04:08:26;;;;;;;2.78;0.55;;;;;;;19.99;100.00;99281.75;7383809;19;20029;-78
2022/09/04 04:10:58;;;;;;;2.10;0.52;;;;;;;19.96;100.00;99280.78;7384960;19;20480;-80
2022/09/04 04:13:36;;;;;;;0.73;0.60;;;;;;;20.16;100.00;99282.06;7385652;19;20015;-79
2022/09/04 04:16:14;;;;;;;2.47;0.77;;;;;;;20.21;100.00;99284.75;7386606;19;20498;-80
2022/09/04 04:19:09;;;;;;;0.45;0.40;;;;;;;20.21;100.00;99278.34;7388343;19;20014;-80
2022/09/04 04:21:53;;;;;;;3.53;1.48;;;;;;;20.19;100.00;99278.09;7385999;19;20086;-79
2022/09/04 04:24:53;;;;;;;0.50;0.43;;;;;;;20.19;100.00;99280.94;7386216;19;20045;-80
2022/09/04 04:27:46;;;;;;;1.02;0.85;;;;;;;20.25;100.00;99278.72;7389453;19;20014;-79
2022/09/04 04:30:16;;;;;;;2.00;1.02;;;;;;;20.18;100.00;99285.81;7382663;19;20018;-79
2022/09/04 04:32:51;;;;;;;5.15;1.15;;;;;;;20.00;100.00;99280.44;7384766;19;20011;-79
2022/09/04 04:35:28;;;;;;;4.60;0.95;;;;;;;19.90;100.00;99282.25;7387638;19;20386;-80
2022/09/04 04:38:27;;;;;;;4.38;0.63;;;;;;;19.96;100.00;99291.34;7388062;19;20065;-79
2022/09/04 04:40:59;;;;;;;1.83;0.73;;;;;;;20.03;100.00;99287.81;7383010;19;20011;-79
2022/09/04 04:43:55;;;;;;;6.18;1.55;;;;;;;20.09;100.00;99294.06;7383809;19;20019;-80
2022/09/04 04:47:14;;;;;;;2.20;0.30;;;;;;;20.08;100.00;99295.38;7386255;19;20035;-79
2022/09/04 04:50:06;;;;;;;2.40;0.93;;;;;;;20.22;100.00;99279.84;7384887;19;20018;-79
2022/09/04 04:52:48;;;;;;;3.55;1.00;;;;;;;20.38;100.00;99281.44;7380979;19;20143;-79
2022/09/04 04:55:37;;;;;;;1.38;0.30;;;;;;;20.30;100.00;99280.66;7382857;19;20011;-79
2022/09/04 04:58:26;;;;;;;2.50;1.02;;;;;;;20.38;100.00;99287.09;7382308;19;20015;-80
2022/09/04 05:01:08;;;;;;;2.95;0.95;;;;;;;20.24;100.00;99288.53;7385690;19;20022;-79
2022/09/04 05:03:47;;;;;;;2.45;0.57;;;;;;;20.12;100.00;99281.66;7385379;19;20025;-79
2022/09/04 05:06:38;;;;;;;3.58;0.73;;;;;;;20.08;100.00;99275.56;7382571;19;20356;-79
2022/09/04 05:09:38;;;;;;;1.50;0.65;;;;;;;20.02;100.00;99283.47;7388784;19;20038;-80
2022/09/04 05:12:35;;;;;;;1.67;0.85;;;;;;;20.11;100.00;99280.91;7384730;19;20025;-80
2022/09/04 05:15:23;;;;;;;0.93;0.50;;;;;;;20.14;100.00;99284.69;7384459;19;20011;-79
2022/09/04 05:18:00;;;;;;;1.58;1.30;;;;;;;19.95;100.00;99278.50;7384606;19;20049;-80
2022/09/04 05:20:41;;;;;;;0.60;0.60;;;;;;;19.95;100.00;99278.50;7391755;19;20040;-80
2022/09/04 05:23:13;;;;;;;;;;;;;;;20.05;100.00;99276.69;7392931;19;20047;-80
2022/09/04 05:25:56;;;;;;;1.98;0.47;;;;;;;20.07;100.00;99279.72;7390825;19;19919;-79
2022/09/04 05:28:45;;;;;;;1.50;0.28;;;;;;;20.17;100.00;99306.19;7388821;19;20812;-80
2022/09/04 05:31:27;;;;;;;4.80;1.02;;;;;;;20.12;100.00;99315.59;7392502;19;20015;-80
2022/09/04 05:34:15;;;;;;;2.55;0.45;;;;;;;20.08;100.00;99326.47;7389863;19;20139;-80
2022/09/04 05:37:02;;;;;;;1.17;0.90;;;;;;;20.06;100.00;99318.53;7393182;19;20018;-80
2022/09/04 05:39:31;;;;;;;2.58;0.75;;;;;;;20.13;100.00;99334.06;7395622;19;20022;-80
2022/09/04 05:42:03;;;;;;;6.50;1.15;;;;;;;20.17;100.00;99328.81;7391624;19;20018;-80
2022/09/04 05:44:35;;;;;;;3.17;0.77;;;;;;;20.16;100.00;99332.94;7390387;19;20039;-79
2022/09/04 05:47:10;;;;;;;6.32;1.85;;;;;;;20.16;100.00;99327.31;7393163;19;20018;-81
2022/09/04 05:49:55;;;;;;;2.13;1.48;;;;;;;20.15;100.00;99342.72;7396843;19;20039;-83
2022/09/04 05:52:52;;;;;;;2.33;1.20;;;;;;;20.26;100.00;99345.28;7392561;19;20022;-81
2022/09/04 05:55:36;;;;;;;3.85;1.40;;;;;;;20.30;100.00;99343.63;7392918;19;20010;-82
2022/09/04 05:58:11;;;;;;;1.52;0.82;;;;;;;20.36;100.00;99340.66;7389537;19;20018;-82
2022/09/04 06:01:07;;;;;;;2.97;1.25;;;;;;;20.63;100.00;99341.97;7392027;19;20090;-81
2022/09/04 06:04:12;;;;;;;4.35;1.40;;;;;;;20.66;100.00;99352.16;7393081;19;20035;-82
2022/09/04 06:07:03;;;;;;;2.65;1.05;;;;;;;20.68;100.00;99351.59;7388488;19;20022;-81
2022/09/04 06:10:06;;;;;;;2.42;1.17;;;;;;;20.60;100.00;99347.97;7390866;19;20011;-80
2022/09/04 06:13:00;;;;;;;3.25;0.85;;;;;;;20.51;100.00;99346.41;7387908;19;20045;-80
2022/09/04 06:15:43;;;;;;;0.93;0.77;;;;;;;20.59;100.00;99329.47;7388522;19;20500;-81
2022/09/04 06:18:15;;;;;;;7.93;1.42;;;;;;;20.68;100.00;99338.19;7386894;19;20082;-81
2022/09/04 06:20:56;;;;;;;2.28;1.27;;;;;;;20.51;100.00;99335.09;7388125;19;20105;-81
2022/09/04 06:24:07;;;;;;;10.02;1.38;;;;;;;20.56;100.00;99337.00;7390075;19;20050;-82
2022/09/04 06:27:05;;;;;;;10.18;1.42;;;;;;;20.92;100.00;99328.53;7389201;19;20356;-81
2022/09/04 06:29:59;;;;;;;5.13;1.60;;;;;;;21.03;100.00;99340.28;7392497;19;20017;-82
2022/09/04 06:32:44;;;;;;;1.50;1.02;;;;;;;20.99;100.00;99331.38;7395920;19;20018;-81
2022/09/04 06:35:31;;;;;;;1.80;1.00;;;;;;;20.64;100.00;99337.81;7393435;19;20090;-80
2022/09/04 06:38:15;;;;;;;8.82;1.42;;;;;;;20.69;100.00;99334.06;7386224;19;20356;-81
2022/09/04 06:40:41;;;;;;;3.53;1.58;;;;;;;20.80;100.00;99328.09;7390281;19;20350;-82
2022/09/04 06:43:18;;;;;;;1.73;1.00;;;;;;;20.78;100.00;99318.63;7388615;19;20014;-82
2022/09/04 06:46:01;;;;;;;3.42;1.40;;;;;;;20.82;100.00;99316.97;7387331;19;20488;-80
2022/09/04 06:48:52;;;;;;;8.07;1.92;;;;;;;21.46;100.00;99316.06;7391248;19;20026;-82
2022/09/04 06:51:33;;;;;;;4.60;1.15;;;;;;;21.44;100.00;99315.88;7389538;19;20026;-82
2022/09/04 06:54:19;;;;;;;5.00;1.33;;;;;;;21.49;100.00;99317.75;7385586;19;20771;-82
2022/09/04 06:57:14;;;;;;;3.53;1.50;;;;;;;21.78;100.00;99338.97;7395053;19;20018;-81
2022/09/04 06:59:56;;;;;;;4.57;1.17;;;;;;;21.81;100.00;99338.56;7394634;19;20050;-82
2022/09/04 07:02:34;;;;;;;4.97;1.52;;;;;;;21.91;100.00;99341.63;7389731;19;20043;-83
2022/09/04 07:05:00;;;;;;;4.97;1.13;;;;;;;21.65;100.00;99353.31;7387591;19;20010;-82
2022/09/04 07:07:51;;;;;;;4.00;2.38;;;;;;;21.71;100.00;99362.38;7391497;19;20345;-82
2022/09/04 07:10:25;;;;;;;6.38;1.33;;;;;;;21.75;100.00;99371.25;7390147;19;20045;-80
2022/09/04 07:12:54;;;;;;;6.97;1.58;;;;;;;21.57;100.00;99363.88;7385904;19;20010;-81
2022/09/04 07:15:42;;;;;;;5.80;1.27;;;;;;;21.68;100.00;99374.81;7385629;19;20031;-82
2022/09/04 07:18:23;;;;;;;3.85;1.10;;;;;;;21.76;100.00;99364.28;7386020;19;20014;-82
2022/09/04 07:21:08;;;;;;;5.43;0.73;;;;;;;21.81;100.00;99372.59;7388609;19;20022;-81
2022/09/04 07:24:07;;;;;;;5.43;1.88;;;;;;;22.01;100.00;99362.44;7386741;19;20010;-82
2022/09/04 07:26:52;;;;;;;11.15;1.83;;;;;;;22.13;100.00;99385.50;7388207;19;20026;-81
2022/09/04 07:29:28;;;;;;;6.47;1.45;;;;;;;22.44;100.00;99384.91;7387836;19;20365;-82
2022/09/04 07:32:07;;;;;;;4.60;1.80;;;;;;;22.25;100.00;99380.97;7386584;19;20018;-81
2022/09/04 07:35:15;;;;;;;5.43;2.03;;;;;;;22.20;100.00;99374.16;7389628;19;20018;-84
2022/09/04 07:38:06;;;;;;;5.35;1.70;;;;;;;22.25;100.00;99383.78;7384180;19;20074;-80
2022/09/04 07:40:42;;;;;;;2.25;0.65;;;;;;;22.27;100.00;99384.75;7385765;19;20606;-82
2022/09/04 07:43:24;;;;;;;4.20;1.25;;;;;;;22.49;100.00;99389.66;7384437;19;20042;-82
2022/09/04 07:46:04;;;;;;;5.85;1.30;;;;;;;22.61;100.00;99407.81;7385238;19;20009;-81
2022/09/04 07:48:42;;;;;;;6.50;2.05;;;;;;;22.89;100.00;99401.13;7389989;19;20040;-80
2022/09/04 07:51:15;;;;;;;12.63;1.23;;;;;;;22.97;100.00;99409.63;7386969;19;20073;-81
2022/09/04 07:53:47;;;;;;;4.28;1.63;;;;;;;23.11;100.00;99423.03;7386408;19;20373;-81
2022/09/04 07:56:52;;;;;;;4.70;1.85;;;;;;;23.07;100.00;99427.59;7390116;19;20018;-80
2022/09/04 07:59:31;;;;;;;6.82;1.17;;;;;;;23.16;100.00;99433.44;7387673;19;20018;-81
2022/09/04 08:02:03;;;;;;;2.17;0.90;;;;;;;23.16;100.00;99432.69;7389008;19;20034;-81
2022/09/04 08:05:03;;;;;;;6.18;1.45;;;;;;;22.99;100.00;99424.78;7385276;19;20500;-80
2022/09/04 08:07:32;;;;;;;4.68;1.67;;;;;;;23.06;100.00;99431.78;7388117;19;20029;-82
2022/09/04 08:10:19;;;;;;;7.40;2.25;;;;;;;22.97;100.00;99438.03;7385894;19;20018;-82
2022/09/04 08:13:12;;;;;;;4.60;1.45;;;;;;;23.27;100.00;99437.94;7388144;19;20014;-80
2022/09/04 08:16:06;;;;;;;3.50;1.10;;;;;;;21.94;100.00;99441.84;7386561;19;20046;-81
2022/09/04 08:19:07;;;;;;;5.93;1.67;;;;;;;23.13;100.00;99451.63;7384671;19;20019;-82
2022/09/04 08:21:38;;;;;;;6.68;0.98;;;;;;;23.38;100.00;99445.31;7388915;19;20591;-83
2022/09/04 08:24:29;;;;;;;4.53;1.00;;;;;;;23.60;100.00;99447.31;7385875;19;20011;-82
2022/09/04 08:27:32;;;;;;;2.38;1.27;;;;;;;23.70;100.00;99440.44;7386060;19;20014;-82
2022/09/04 08:30:08;;;;;;;4.03;1.08;;;;;;;24.05;100.00;99453.53;7385642;19;20022;-84
2022/09/04 08:32:47;;;;;;;3.92;1.02;;;;;;;24.40;100.00;99450.81;7385357;19;20414;-82
2022/09/04 08:35:38;;;;;;;3.72;0.90;;;;;;;24.54;100.00;99443.47;7388925;19;20423;-82
2022/09/04 08:38:28;;;;;;;4.05;1.23;;;;;;;24.79;100.00;99444.22;7382711;19;20486;-83
2022/09/04 08:41:10;;;;;;;3.85;1.02;;;;;;;25.02;100.00;99447.59;7386640;19;20011;-84
2022/09/04 08:44:08;;;;;;;2.83;0.82;;;;;;;25.17;100.00;99447.44;7383384;19;20359;-83
2022/09/04 08:46:45;;;;;;;2.17;0.80;;;;;;;25.20;100.00;99454.81;7387345;19;20029;-84
2022/09/04 08:49:42;;;;;;;1.88;0.80;;;;;;;25.17;100.00;99449.50;7388956;19;20876;-83
2022/09/04 08:52:19;;;;;;;3.13;0.47;;;;;;;25.09;100.00;99455.31;7385511;19;20019;-83
2022/09/04 08:55:00;;;;;;;2.60;1.23;;;;;;;25.20;100.00;99449.13;7384680;19;20034;-83
2022/09/04 08:57:38;;;;;;;1.05;0.30;;;;;;;25.05;100.00;99466.38;7392647;19;20384;-81
2022/09/04 09:00:16;;;;;;;2.55;0.82;;;;;;;25.07;100.00;99471.47;7391921;19;20018;-81
2022/09/04 09:03:19;;;;;;;4.13;1.48;;;;;;;24.87;100.00;99473.38;7393070;19;20090;-82
2022/09/04 09:06:14;;;;;;;4.70;1.23;;;;;;;24.80;100.00;99474.97;7393033;19;20015;-81
2022/09/04 09:09:13;;;;;;;2.22;1.40;;;;;;;24.96;100.00;99471.97;7396171;19;20021;-81
2022/09/04 09:12:17;;;;;;;4.30;0.93;;;;;;;25.14;100.00;99474.28;7391601;19;20022;-82
2022/09/04 09:14:59;;;;;;;4.15;0.93;;;;;;;25.32;100.00;99477.84;7391410;19;20010;-81
2022/09/04 09:17:44;;;;;;;3.15;0.60;;;;;;;25.08;100.00;99482.28;7392030;19;20041;-80
2022/09/04 09:20:27;;;;;;;8.75;1.42;;;;;;;24.97;100.00;99476.34;7393602;19;20015;-80
2022/09/04 09:23:20;;;;;;;1.10;0.60;;;;;;;23.39;100.00;99487.38;7393076;19;20027;-82
2022/09/04 09:25:50;;;;;;;3.70;1.20;;;;;;;24.33;100.00;99494.31;7390853;19;20042;-81
2022/09/04 09:28:16;;;;;;;3.67;1.70;;;;;;;24.85;100.00;99498.84;7388223;19;20077;-82
2022/09/04 09:31:04;;;;;;;11.80;1.08;;;;;;;24.70;100.00;99510.34;7391394;19;20026;-82
2022/09/04 09:33:39;;;;;;;2.00;0.57;;;;;;;24.57;100.00;99499.25;7388389;19;20361;-82
2022/09/04 09:36:38;;;;;;;5.47;0.70;;;;;;;24.89;100.00;99499.19;7392287;19;20587;-81
2022/09/04 09:39:28;;;;;;;1.35;0.85;;;;;;;25.13;100.00;99501.25;7393139;19;20369;-81
2022/09/04 09:42:39;;;;;;;0.73;0.25;;;;;;;25.07;100.00;99491.44;7390333;19;20015;-81
2022/09/04 09:45:36;;;;;;;3.50;0.73;;;;;;;25.14;100.00;99497.06;7388634;19;20014;-82
2022/09/04 09:48:28;;;;;;;2.22;1.13;;;;;;;25.35;100.00;99494.56;7389876;19;20019;-82
2022/09/04 09:51:22;;;;;;;2.33;0.73;;;;;;;25.25;100.00;99496.53;7391032;19;20018;-83
2022/09/04 09:54:19;;;;;;;5.80;1.00;;;;;;;25.58;100.00;99490.72;7389288;19;20029;-81
2022/09/04 09:56:54;;;;;;;3.72;0.75;;;;;;;25.66;100.00;99489.28;7392517;19;20468;-81
2022/09/04 10:00:04;;;;;;;2.00;0.47;;;;;;;26.08;100.00;99487.00;7390692;19;20010;-81
2022/09/04 10:02:40;;;;;;;2.72;0.93;;;;;;;26.26;100.00;99491.31;7389591;19;20484;-81
2022/09/04 10:05:44;;;;;;;0.20;0.20;;;;;;;26.57;100.00;99494.47;7390688;19;20014;-80
2022/09/04 10:08:40;;;;;;;2.20;0.68;;;;;;;26.66;100.00;99492.97;7388084;19;20670;-82
2022/09/04 10:11:38;;;;;;;0.80;0.40;;;;;;;26.63;100.00;99492.06;7389615;19;20755;-81
2022/09/04 10:14:58;;;;;;;1.55;0.52;;;;;;;26.33;100.00;99495.41;7388980;19;20014;-82
2022/09/04 10:17:43;;;;;;;3.08;0.40;;;;;;;26.12;100.00;99506.53;7389214;19;20028;-80
2022/09/04 10:20:25;;;;;;;0.55;0.30;;;;;;;25.79;100.00;99516.69;7391965;19;20421;-80
2022/09/04 10:23:09;;;;;;;1.77;0.20;;;;;;;25.66;100.00;99505.63;7385378;19;20014;-81
2022/09/04 10:25:38;;;;;;;2.45;0.30;;;;;;;24.43;100.00;99524.41;7386546;19;20375;-81
2022/09/04 10:28:21;;;;;;;2.63;0.35;;;;;;;23.91;100.00;99523.38;7386267;19;20626;-80
2022/09/04 10:31:26;;;;;;;1.75;0.47;;;;;;;23.69;100.00;99529.16;7388206;19;20027;-81
2022/09/04 10:34:10;;;;;;;2.80;0.57;;;;;;;23.53;100.00;99534.16;7388128;19;20018;-82
2022/09/04 10:36:46;;;;;;;1.27;0.68;;;;;;;23.52;100.00;99532.63;7393161;19;20014;-81
2022/09/04 10:42:24;;;;;;;0.75;0.22;;;;;;;23.62;100.00;99539.25;7389365;19;20026;-81
2022/09/04 10:44:56;;;;;;;0.63;0.20;;;;;;;23.65;100.00;99545.88;7388542;19;20852;-83
2022/09/04 10:47:34;;;;;;;1.63;0.43;;;;;;;23.62;100.00;99542.09;7392686;19;20373;-81
2022/09/04 10:50:00;;;;;;;2.05;0.52;;;;;;;23.78;100.00;99543.53;7392249;19;20014;-82
2022/09/04 10:52:33;;;;;;;6.10;0.40;;;;;;;23.94;100.00;99550.69;7388019;19;20014;-79
2022/09/04 10:55:19;;;;;;;0.95;0.40;;;;;;;24.28;100.00;99543.72;7387531;19;20042;-78
2022/09/04 10:58:04;;;;;;;2.92;0.57;;;;;;;24.47;100.00;99533.31;7387237;19;20022;-79
2022/09/04 11:00:50;;;;;;;2.72;0.30;;;;;;;24.46;100.00;99542.44;7385863;19;20026;-79
2022/09/04 11:03:32;;;;;;;1.25;0.45;;;;;;;24.35;100.00;99525.81;7392292;19;20014;-79
2022/09/04 11:06:30;;;;;;;1.00;0.38;;;;;;;24.30;100.00;99529.66;7387438;19;20018;-80
2022/09/04 11:09:05;;;;;;;3.40;0.30;;;;;;;24.22;100.00;99541.06;7386517;19;20342;-80
2022/09/04 11:12:06;;;;;;;1.25;0.28;;;;;;;24.23;100.00;99547.53;7386595;19;20017;-80
2022/09/04 11:14:55;;;;;;;2.25;0.60;;;;;;;24.18;100.00;99535.03;7388415;19;20015;-80
2022/09/04 11:17:27;;;;;;;0.32;0.10;;;;;;;24.16;100.00;99543.38;7380662;19;20018;-79
2022/09/04 11:20:11;;;;;;;2.47;0.20;;;;;;;24.22;100.00;99546.00;7388738;19;20019;-80
2022/09/04 11:22:59;;;;;;;1.08;0.17;;;;;;;24.26;100.00;99546.34;7385786;19;20106;-80
2022/09/04 11:25:53;;;;;;;1.38;0.30;;;;;;;24.12;100.00;99559.34;7386155;19;20396;-80
2022/09/04 11:28:42;;;;;;;1.10;0.38;;;;;;;24.00;100.00;99554.06;7384025;19;20014;-79
2022/09/04 11:31:26;;;;;;;7.90;0.33;;;;;;;23.96;100.00;99559.38;7385370;19;20025;-79
2022/09/04 11:34:31;;;;;;;1.08;0.45;;;;;;;23.97;100.00;99560.88;7386036;19;20014;-79
2022/09/04 11:37:14;;;;;;;0.43;0.10;;;;;;;24.00;100.00;99571.13;7387954;19;20082;-79
2022/09/04 11:39:52;;;;;;;1.20;0.32;;;;;;;24.02;100.00;99574.16;7386996;19;20349;-79
2022/09/04 11:42:43;;;;;;;6.22;1.45;;;;;;;24.08;100.00;99574.72;7385766;19;20021;-78
2022/09/04 11:45:51;;;;;;;1.27;0.22;;;;;;;25.13;100.00;99575.34;7386265;19;20006;-78
2022/09/04 11:48:48;;;;;;;3.35;1.58;;;;;;;26.46;100.00;99563.56;7384241;19;20015;-79
2022/09/04 11:51:20;;;;;;;0.30;0.10;;;;;;;27.45;100.00;99571.28;7386523;19;20106;-78
2022/09/04 11:54:11;;;;;;;6.95;0.82;;;;;;;28.02;100.00;99568.47;7382823;19;20748;-79
2022/09/04 11:56:40;;;;;;;;;;;;;;;28.46;100.00;99574.53;7389000;19;20039;-79
2022/09/04 11:59:28;;;;;;;3.85;0.35;;;;;;;28.39;100.00;99561.13;7385743;19;19926;-79
2022/09/04 12:02:14;;;;;;;1.08;0.20;;;;;;;28.30;100.00;99561.94;7383845;19;20022;-79
2022/09/04 12:04:52;;;;;;;1.20;0.30;;;;;;;28.30;100.00;99576.25;7385705;19;20043;-79
2022/09/04 12:07:27;;;;;;;0.63;0.10;;;;;;;28.36;100.00;99567.34;7386778;19;20018;-79
2022/09/04 12:09:59;;;;;;;1.15;0.40;;;;;;;28.40;100.00;99585.56;7389428;19;20022;-78
2022/09/04 12:13:15;;;;;;;0.60;0.25;;;;;;;28.44;100.00;99579.38;7384828;19;20490;-79
2022/09/04 12:15:56;;;;;;;2.85;0.30;;;;;;;28.64;100.00;99580.09;7386101;19;20018;-80
2022/09/04 12:18:54;;;;;;;3.03;0.25;;;;;;;28.46;100.00;99583.13;7383144;19;20477;-79
2022/09/04 12:21:20;;;;;;;3.97;0.40;;;;;;;28.52;100.00;99586.44;7386112;19;20341;-79
2022/09/04 12:24:06;;;;;;;0.60;0.20;;;;;;;28.70;100.00;99589.13;7385095;19;20014;-79
2022/09/04 12:27:03;;;;;;;0.65;0.08;;;;;;;28.77;100.00;99585.31;7386805;19;20349;-79
2022/09/04 12:29:56;;;;;;;0.40;0.10;;;;;;;28.95;100.00;99581.63;7388596;19;20043;-80
2022/09/04 12:32:37;;;;;;;0.10;0.00;;;;;;;28.81;100.00;99588.47;7392026;19;20018;-78
2022/09/04 12:35:32;;;;;;;1.48;0.22;;;;;;;28.63;100.00;99587.19;7391103;19;20671;-79
2022/09/04 12:38:13;;;;;;;3.83;0.75;;;;;;;28.64;100.00;99586.59;7389370;19;20029;-79
2022/09/04 12:41:21;;;;;;;0.77;0.20;;;;;;;28.45;100.00;99584.50;7392059;19;20025;-79
2022/09/04 12:43:50;;;;;;;5.07;0.43;;;;;;;28.30;100.00;99572.63;7388764;19;20378;-79
2022/09/04 12:46:25;;;;;;;0.60;0.10;;;;;;;28.69;100.00;99579.03;7393884;19;20022;-79
2022/09/04 12:49:01;;;;;;;0.28;0.10;;;;;;;28.85;100.00;99578.03;7393569;19;20030;-79
2022/09/04 12:51:47;;;;;;;1.05;0.20;;;;;;;28.99;100.00;99581.91;7393223;19;20014;-79
2022/09/04 12:54:17;;;;;;;2.38;0.20;;;;;;;28.65;100.00;99587.34;7389999;19;20018;-80